Terminal Aerodrome Forecast
Issued by NWS Wilmington, OH

Current Version | Previous Version | Graphics & Text | Print | Product List | Glossary On
Versions: 1 2 3 4 5 6 7 8 9 10 11 12 13 14 15 16 17 18 19 20 21 22 23 24 25 26
000
FTUS41 KILN 221700
TAFCVG
TAF
KCVG 221729Z 2218/2324 36012KT P6SM BKN035
      TEMPO 2218/2220 BKN028
     FM222300 01006KT P6SM SCT035
     FM230100 03004KT P6SM SKC
     FM231500 29006KT P6SM SCT250=

USA.gov is the U.S. government's official web portal to all federal, state and local government web resources and services.